createdAt,value
2018-07-09T00:00:41.957Z,22.20
2018-07-09T00:01:46.220Z,22.20
2018-07-09T00:02:50.380Z,22.20
2018-07-09T00:03:54.442Z,22.20
2018-07-09T00:06:02.347Z,22.20
2018-07-09T00:07:06.495Z,22.20
2018-07-09T00:08:11.712Z,22.20
2018-07-09T00:09:15.810Z,22.20
2018-07-09T00:11:27.427Z,22.10
2018-07-09T00:12:31.622Z,22.10
2018-07-09T00:13:37.022Z,22.10
2018-07-09T00:14:41.194Z,22.10
2018-07-09T00:15:45.545Z,22.00
2018-07-09T00:16:49.644Z,22.00
2018-07-09T00:17:53.820Z,22.00
2018-07-09T00:18:57.982Z,21.90
2018-07-09T00:20:02.173Z,21.90
2018-07-09T00:21:06.298Z,21.90
2018-07-09T00:22:10.389Z,21.90
2018-07-09T00:23:15.182Z,21.90
2018-07-09T00:24:19.335Z,21.80
2018-07-09T00:25:23.489Z,21.80
2018-07-09T00:26:27.610Z,21.80
2018-07-09T00:27:31.868Z,21.80
2018-07-09T00:28:36.027Z,21.70
2018-07-09T00:29:40.101Z,21.70
2018-07-09T00:30:44.280Z,21.70
2018-07-09T00:31:48.500Z,21.70
2018-07-09T00:32:52.666Z,21.60
2018-07-09T00:33:56.827Z,21.60
2018-07-09T00:35:00.997Z,21.60
2018-07-09T00:36:05.251Z,21.60
2018-07-09T00:38:13.198Z,21.60
2018-07-09T00:39:17.271Z,21.50
2018-07-09T00:40:21.504Z,21.50
2018-07-09T00:41:25.725Z,21.50
2018-07-09T00:42:29.988Z,21.50
2018-07-09T00:43:34.181Z,21.50
2018-07-09T00:44:38.425Z,21.50
2018-07-09T00:45:42.576Z,21.50
2018-07-09T00:46:46.784Z,21.50
2018-07-09T00:47:51.333Z,21.50
2018-07-09T00:48:55.534Z,21.50
2018-07-09T00:49:59.720Z,21.50
2018-07-09T00:51:03.902Z,21.50
2018-07-09T00:52:08.022Z,21.50
2018-07-09T00:53:12.263Z,21.50
2018-07-09T00:54:16.467Z,21.40
2018-07-09T00:55:20.651Z,21.40
2018-07-09T00:56:24.851Z,21.40
2018-07-09T00:57:28.955Z,21.40
2018-07-09T00:58:33.137Z,21.40
2018-07-09T00:59:37.216Z,21.40
2018-07-09T01:00:41.313Z,21.40
2018-07-09T01:01:45.612Z,21.30
2018-07-09T01:02:49.931Z,21.30
2018-07-09T01:03:54.085Z,21.30
2018-07-09T01:04:58.240Z,21.30
2018-07-09T01:06:02.420Z,21.30
2018-07-09T01:07:06.685Z,21.30
2018-07-09T01:08:10.828Z,21.30
2018-07-09T01:09:14.950Z,21.30
2018-07-09T01:10:19.673Z,21.20
2018-07-09T01:11:35.171Z,21.20
2018-07-09T01:12:39.390Z,21.20
2018-07-09T01:13:45.723Z,21.20
2018-07-09T01:14:49.773Z,21.20
2018-07-09T01:15:53.875Z,21.10
2018-07-09T01:16:57.990Z,21.10
2018-07-09T01:18:02.066Z,21.10
2018-07-09T01:19:06.183Z,21.10
2018-07-09T01:20:10.386Z,21.10
2018-07-09T01:21:15.285Z,21.10
2018-07-09T01:22:19.492Z,21.10
2018-07-09T01:23:23.562Z,21.00
2018-07-09T01:24:27.743Z,21.00
2018-07-09T01:25:31.929Z,21.00
2018-07-09T01:26:36.099Z,21.00
2018-07-09T01:27:40.214Z,21.00
2018-07-09T01:28:44.303Z,21.00
2018-07-09T01:29:48.549Z,21.10
2018-07-09T01:30:52.744Z,21.00
2018-07-09T01:31:57.096Z,21.00
2018-07-09T01:33:01.237Z,21.00
2018-07-09T01:34:05.318Z,21.00
2018-07-09T01:35:10.614Z,21.00
2018-07-09T01:36:14.790Z,21.00
2018-07-09T01:37:18.963Z,21.00
2018-07-09T01:38:23.184Z,21.00
2018-07-09T01:39:27.324Z,21.00
2018-07-09T01:40:31.520Z,21.00
2018-07-09T01:41:35.598Z,21.00
2018-07-09T01:42:45.798Z,21.00
2018-07-09T01:43:50.123Z,21.00
2018-07-09T01:44:54.267Z,21.00
2018-07-09T01:45:58.443Z,21.00
2018-07-09T01:47:02.636Z,21.00
2018-07-09T01:49:10.401Z,21.00
2018-07-09T01:51:18.306Z,21.00
2018-07-09T01:52:22.397Z,21.00
2018-07-09T01:53:26.633Z,21.00
2018-07-09T01:54:30.784Z,21.00
2018-07-09T01:55:34.979Z,21.00
2018-07-09T01:56:39.181Z,21.00
2018-07-09T01:57:43.316Z,21.00
2018-07-09T01:58:47.455Z,21.00
2018-07-09T01:59:51.845Z,20.90
2018-07-09T02:00:56.013Z,20.90
2018-07-09T02:02:00.100Z,20.90
2018-07-09T02:03:04.264Z,20.90
2018-07-09T02:04:08.378Z,20.90
2018-07-09T02:05:12.520Z,20.90
2018-07-09T02:06:16.663Z,20.90
2018-07-09T02:07:20.806Z,20.90
2018-07-09T02:08:24.979Z,20.90
2018-07-09T02:09:29.086Z,20.90
2018-07-09T02:10:33.237Z,20.90
2018-07-09T02:11:37.849Z,20.90
2018-07-09T02:12:42.054Z,20.90
2018-07-09T02:13:46.161Z,20.90
2018-07-09T02:14:50.322Z,20.90
2018-07-09T02:15:54.458Z,20.90
2018-07-09T02:16:58.627Z,20.80
2018-07-09T02:18:02.769Z,20.80
2018-07-09T02:19:06.888Z,20.80
2018-07-09T02:20:11.039Z,20.80
2018-07-09T02:21:15.185Z,20.80
2018-07-09T02:22:19.314Z,20.80
2018-07-09T02:24:27.176Z,20.80
2018-07-09T02:25:31.294Z,20.80
2018-07-09T02:26:35.452Z,20.80
2018-07-09T02:27:39.545Z,20.80
2018-07-09T02:28:43.809Z,20.70
2018-07-09T02:29:47.962Z,20.70
2018-07-09T02:30:52.234Z,20.70
2018-07-09T02:33:00.335Z,20.70
2018-07-09T02:34:04.519Z,20.60
2018-07-09T02:35:08.677Z,20.60
2018-07-09T02:36:12.965Z,20.60
2018-07-09T02:37:17.069Z,20.60
2018-07-09T02:38:21.305Z,20.60
2018-07-09T02:39:25.519Z,20.60
2018-07-09T02:40:29.753Z,20.50
2018-07-09T02:41:33.956Z,20.50
2018-07-09T02:42:38.136Z,20.50
2018-07-09T02:43:42.436Z,20.50
2018-07-09T02:44:46.586Z,20.50
2018-07-09T02:45:50.781Z,20.50
2018-07-09T02:46:54.946Z,20.50
2018-07-09T02:47:59.116Z,20.50
2018-07-09T02:49:03.362Z,20.50
2018-07-09T02:50:07.600Z,20.50
2018-07-09T02:51:11.803Z,20.50
2018-07-09T02:52:16.080Z,20.40
2018-07-09T02:53:20.267Z,20.40
2018-07-09T02:54:24.459Z,20.40
2018-07-09T02:55:28.567Z,20.40
2018-07-09T02:56:32.973Z,20.40
2018-07-09T02:57:37.092Z,20.40
2018-07-09T02:58:41.494Z,20.40
2018-07-09T02:59:45.654Z,20.40
2018-07-09T03:00:49.938Z,20.30
2018-07-09T03:01:54.197Z,20.30
2018-07-09T03:02:58.303Z,20.30
2018-07-09T03:04:02.662Z,20.30
2018-07-09T03:05:06.879Z,20.30
2018-07-09T03:06:11.017Z,20.30
2018-07-09T03:07:15.143Z,20.30
2018-07-09T03:08:19.314Z,20.30
2018-07-09T03:09:23.581Z,20.30
2018-07-09T03:10:27.834Z,20.30
2018-07-09T03:11:32.431Z,20.30
2018-07-09T03:13:40.317Z,20.20
2018-07-09T03:14:44.617Z,20.20
2018-07-09T03:15:48.760Z,20.20
2018-07-09T03:16:53.070Z,20.20
2018-07-09T03:17:57.240Z,20.20
2018-07-09T03:19:01.732Z,20.20
2018-07-09T03:20:05.971Z,20.20
2018-07-09T03:21:10.202Z,20.20
2018-07-09T03:22:14.491Z,20.20
2018-07-09T03:23:18.722Z,20.20
2018-07-09T03:24:22.901Z,20.20
2018-07-09T03:25:27.011Z,20.20
2018-07-09T03:26:31.551Z,20.20
2018-07-09T03:27:35.939Z,20.20
2018-07-09T03:28:40.075Z,20.20
2018-07-09T03:29:44.379Z,20.20
2018-07-09T03:30:48.623Z,20.20
2018-07-09T03:31:53.122Z,20.20
2018-07-09T03:32:57.475Z,20.20
2018-07-09T03:34:01.883Z,20.20
2018-07-09T03:35:06.145Z,20.20
2018-07-09T03:36:10.554Z,20.30
2018-07-09T03:37:14.927Z,20.20
2018-07-09T03:38:19.117Z,20.20
2018-07-09T03:39:23.713Z,20.20
2018-07-09T03:40:27.878Z,20.20
2018-07-09T03:41:32.320Z,20.30
2018-07-09T03:42:36.667Z,20.20
2018-07-09T03:43:41.270Z,20.20
2018-07-09T03:44:45.524Z,20.20
2018-07-09T03:45:49.875Z,20.20
2018-07-09T03:46:54.200Z,20.20
2018-07-09T03:47:58.341Z,20.20
2018-07-09T03:49:03.200Z,20.20
2018-07-09T03:50:07.421Z,20.20
2018-07-09T03:51:12.208Z,20.20
2018-07-09T03:52:16.507Z,20.20
2018-07-09T03:53:20.728Z,20.20
2018-07-09T03:54:25.158Z,20.20
2018-07-09T03:55:29.369Z,20.20
2018-07-09T03:56:33.951Z,20.20
2018-07-09T03:57:38.164Z,20.20
2018-07-09T03:58:42.771Z,20.20
2018-07-09T03:59:47.023Z,20.20
2018-07-09T04:00:51.584Z,20.20
2018-07-09T04:01:55.824Z,20.30
2018-07-09T04:03:00.124Z,20.30
2018-07-09T04:04:04.680Z,20.30
2018-07-09T04:05:09.228Z,20.30
2018-07-09T04:06:14.155Z,20.30
2018-07-09T04:07:18.420Z,20.30
2018-07-09T04:08:23.510Z,20.30
2018-07-09T04:09:27.788Z,20.30
2018-07-09T04:10:32.576Z,20.30
2018-07-09T04:11:36.745Z,20.30
2018-07-09T04:12:40.960Z,20.30
2018-07-09T04:13:45.433Z,20.30
2018-07-09T04:14:49.978Z,20.30
2018-07-09T04:15:54.614Z,20.30
2018-07-09T04:16:58.754Z,20.40
2018-07-09T04:18:03.537Z,20.40
2018-07-09T04:19:08.050Z,20.40
2018-07-09T04:20:12.832Z,20.40
2018-07-09T04:21:17.106Z,20.40
2018-07-09T04:22:21.567Z,20.40
2018-07-09T04:23:25.941Z,20.40
2018-07-09T04:24:30.148Z,20.40
2018-07-09T04:25:34.762Z,20.40
2018-07-09T04:26:38.967Z,20.50
2018-07-09T04:27:43.707Z,20.50
2018-07-09T04:28:48.023Z,20.50
2018-07-09T04:29:52.614Z,20.50
2018-07-09T04:30:57.328Z,20.50
2018-07-09T04:32:01.773Z,20.50
2018-07-09T04:33:06.258Z,20.50
2018-07-09T04:34:10.706Z,20.50
2018-07-09T04:35:15.364Z,20.50
2018-07-09T04:36:19.806Z,20.60
2018-07-09T04:37:24.411Z,20.60
2018-07-09T04:38:29.082Z,20.60
2018-07-09T04:39:33.885Z,20.50
2018-07-09T04:40:38.539Z,20.60
2018-07-09T04:41:43.816Z,20.50
2018-07-09T04:42:48.321Z,20.50
2018-07-09T04:43:53.193Z,20.60
2018-07-09T04:44:57.511Z,20.60
2018-07-09T04:46:02.413Z,20.60
2018-07-09T04:47:06.879Z,20.50
2018-07-09T04:48:11.518Z,20.60
2018-07-09T04:49:16.004Z,20.60
2018-07-09T04:50:20.425Z,20.60
2018-07-09T04:51:25.175Z,20.60
2018-07-09T04:52:29.751Z,20.60
2018-07-09T04:53:34.732Z,20.50
2018-07-09T04:54:39.126Z,20.60
2018-07-09T04:55:43.943Z,20.60
2018-07-09T04:56:48.458Z,20.60
2018-07-09T04:57:53.128Z,20.60
2018-07-09T04:58:57.730Z,20.60
2018-07-09T05:00:02.541Z,20.50
2018-07-09T05:01:07.057Z,20.60
2018-07-09T05:02:11.615Z,20.60
2018-07-09T05:03:16.144Z,20.60
2018-07-09T05:04:20.868Z,20.60
2018-07-09T05:05:25.551Z,20.60
2018-07-09T05:06:29.990Z,20.60
2018-07-09T05:07:34.789Z,20.60
2018-07-09T05:08:39.120Z,20.60
2018-07-09T05:09:44.181Z,20.60
2018-07-09T05:10:48.676Z,20.60
2018-07-09T05:11:54.290Z,20.60
2018-07-09T05:12:58.810Z,20.60
2018-07-09T05:14:03.853Z,20.60
2018-07-09T05:15:08.336Z,20.70
2018-07-09T05:16:13.856Z,20.70
2018-07-09T05:17:18.368Z,20.70
2018-07-09T05:18:23.613Z,20.70
2018-07-09T05:19:28.240Z,20.70
2018-07-09T05:20:32.883Z,20.70
2018-07-09T05:21:37.560Z,20.70
2018-07-09T05:22:42.270Z,20.80
2018-07-09T05:23:46.888Z,20.80
2018-07-09T05:24:52.448Z,20.80
2018-07-09T05:25:57.169Z,20.80
2018-07-09T05:27:02.459Z,20.80
2018-07-09T05:28:07.025Z,20.80
2018-07-09T05:29:12.044Z,20.90
2018-07-09T05:30:16.804Z,20.90
2018-07-09T05:31:21.665Z,20.90
2018-07-09T05:32:26.781Z,20.90
2018-07-09T05:33:31.544Z,20.90
2018-07-09T05:34:36.048Z,20.90
2018-07-09T05:35:41.406Z,21.00
2018-07-09T05:36:46.213Z,21.00
2018-07-09T05:37:50.859Z,21.00
2018-07-09T05:38:56.090Z,21.00
2018-07-09T05:40:01.451Z,21.00
2018-07-09T05:41:05.921Z,21.10
2018-07-09T05:42:11.311Z,21.10
2018-07-09T05:43:16.337Z,21.10
2018-07-09T05:44:20.912Z,21.20
2018-07-09T05:45:25.947Z,21.20
2018-07-09T05:46:31.592Z,21.20
2018-07-09T05:47:37.139Z,21.30
2018-07-09T05:48:42.615Z,21.30
2018-07-09T05:49:48.683Z,21.30
2018-07-09T05:50:53.779Z,21.40
2018-07-09T05:51:58.348Z,21.40
2018-07-09T05:53:03.661Z,21.50
2018-07-09T05:54:08.236Z,21.50
2018-07-09T05:55:13.062Z,21.50
2018-07-09T05:56:17.792Z,21.60
2018-07-09T05:57:23.334Z,21.60
2018-07-09T05:58:27.821Z,21.70
2018-07-09T05:59:33.612Z,21.70
2018-07-09T06:00:38.206Z,21.70
2018-07-09T06:01:43.544Z,21.80
2018-07-09T06:02:48.133Z,21.80
2018-07-09T06:03:53.386Z,21.80
2018-07-09T06:04:58.451Z,21.90
2018-07-09T06:06:03.695Z,21.90
2018-07-09T06:07:08.401Z,21.90
2018-07-09T06:08:13.624Z,22.00
2018-07-09T06:09:18.799Z,22.00
2018-07-09T06:10:24.418Z,22.30
2018-07-09T06:11:29.341Z,22.10
2018-07-09T06:12:34.620Z,22.10
2018-07-09T06:13:39.561Z,22.10
2018-07-09T06:14:44.590Z,22.20
2018-07-09T06:15:49.170Z,22.20
2018-07-09T06:16:55.169Z,22.20
2018-07-09T06:18:00.166Z,22.30
2018-07-09T06:19:05.551Z,22.30
2018-07-09T06:20:10.600Z,22.40
2018-07-09T06:22:20.336Z,22.40
2018-07-09T06:23:25.061Z,22.50
2018-07-09T06:24:29.971Z,22.50
2018-07-09T06:25:35.647Z,22.50
2018-07-09T06:26:40.897Z,22.60
2018-07-09T06:27:45.911Z,22.60
2018-07-09T06:28:51.950Z,22.60
2018-07-09T06:29:56.760Z,22.70
2018-07-09T06:31:01.725Z,22.70
2018-07-09T06:32:07.232Z,22.70
2018-07-09T06:33:12.612Z,22.70
2018-07-09T06:34:17.918Z,22.70
2018-07-09T06:35:23.376Z,22.80
2018-07-09T06:37:33.925Z,22.80
2018-07-09T06:39:43.727Z,22.80
2018-07-09T06:40:48.516Z,22.80
2018-07-09T06:41:54.944Z,22.80
2018-07-09T06:42:59.906Z,22.90
2018-07-09T06:44:05.901Z,22.90
2018-07-09T06:45:10.578Z,22.90
2018-07-09T06:46:16.044Z,22.90
2018-07-09T06:47:21.111Z,22.90
2018-07-09T06:48:26.416Z,22.90
2018-07-09T06:49:32.144Z,22.90
2018-07-09T06:50:37.212Z,22.90
2018-07-09T06:51:43.171Z,22.90
2018-07-09T06:52:47.997Z,22.90
2018-07-09T06:53:53.108Z,22.90
2018-07-09T06:56:02.926Z,22.90
2018-07-09T06:57:08.292Z,22.90
2018-07-09T06:58:13.764Z,22.90
2018-07-09T06:59:18.480Z,22.90
2018-07-09T07:00:24.351Z,22.90
2018-07-09T07:01:29.270Z,22.90
2018-07-09T07:02:34.873Z,22.90
2018-07-09T07:03:39.697Z,23.00
2018-07-09T07:04:46.143Z,23.00
2018-07-09T07:05:51.899Z,23.00
2018-07-09T07:06:57.344Z,23.00
2018-07-09T07:08:02.484Z,23.00
2018-07-09T07:09:07.820Z,23.10
2018-07-09T07:10:13.769Z,23.10
2018-07-09T07:11:18.972Z,23.10
2018-07-09T07:12:24.992Z,23.10
2018-07-09T07:13:30.725Z,23.10
2018-07-09T07:14:36.080Z,23.20
2018-07-09T07:15:41.957Z,23.20
2018-07-09T07:16:47.400Z,23.20
2018-07-09T07:17:52.675Z,23.20
2018-07-09T07:18:58.363Z,23.20
2018-07-09T07:20:03.879Z,23.30
2018-07-09T07:21:10.024Z,23.30
2018-07-09T07:22:15.374Z,23.30
2018-07-09T07:23:20.933Z,23.30
2018-07-09T07:24:27.067Z,23.30
2018-07-09T07:25:32.655Z,23.40
2018-07-09T07:26:38.460Z,23.40
2018-07-09T07:27:44.362Z,23.40
2018-07-09T07:28:49.871Z,23.40
2018-07-09T07:29:54.955Z,23.40
2018-07-09T07:31:00.090Z,23.50
2018-07-09T07:32:05.403Z,23.50
2018-07-09T07:33:10.807Z,23.50
2018-07-09T07:34:15.830Z,23.50
2018-07-09T07:35:21.442Z,23.60
2018-07-09T07:36:26.705Z,23.60
2018-07-09T07:37:32.268Z,23.60
2018-07-09T07:38:37.738Z,23.70
2018-07-09T07:39:43.276Z,23.70
2018-07-09T07:40:48.824Z,23.70
2018-07-09T07:41:54.581Z,23.80
2018-07-09T07:44:05.419Z,23.80
2018-07-09T07:45:11.346Z,23.90
2018-07-09T07:46:17.512Z,23.90
2018-07-09T07:47:23.304Z,23.90
2018-07-09T07:48:29.664Z,24.00
2018-07-09T07:50:41.462Z,24.00
2018-07-09T07:51:47.150Z,24.10
2018-07-09T07:52:53.042Z,24.10
2018-07-09T07:53:57.926Z,24.10
2018-07-09T07:55:03.570Z,24.20
2018-07-09T07:56:09.174Z,24.20
2018-07-09T07:57:15.034Z,24.30
2018-07-09T07:58:20.750Z,24.30
2018-07-09T07:59:26.564Z,24.30
2018-07-09T08:00:32.474Z,24.40
2018-07-09T08:01:37.872Z,24.40
2018-07-09T08:02:43.003Z,24.50
2018-07-09T08:03:48.345Z,24.50
2018-07-09T08:05:59.131Z,24.70
2018-07-09T08:07:05.566Z,24.70
2018-07-09T08:08:10.496Z,24.80
2018-07-09T08:09:16.666Z,24.80
2018-07-09T08:10:22.195Z,24.90
2018-07-09T08:11:47.729Z,24.90
2018-07-09T08:13:40.220Z,25.00
2018-07-09T08:14:46.498Z,25.10
2018-07-09T08:15:52.082Z,25.20
2018-07-09T08:16:57.610Z,25.20
2018-07-09T08:18:03.701Z,25.30
2018-07-09T08:19:09.011Z,25.30
2018-07-09T08:20:15.684Z,25.30
2018-07-09T08:21:21.271Z,25.40
2018-07-09T08:22:26.831Z,25.50
2018-07-09T08:23:31.894Z,25.50
2018-07-09T08:24:37.265Z,25.60
2018-07-09T08:25:42.709Z,25.60
2018-07-09T08:26:48.119Z,25.70
2018-07-09T08:27:53.729Z,25.70
2018-07-09T08:28:59.599Z,25.80
2018-07-09T08:30:05.651Z,25.80
2018-07-09T08:31:11.593Z,25.90
2018-07-09T08:32:16.591Z,25.90
2018-07-09T08:33:21.911Z,26.00
2018-07-09T08:34:27.233Z,26.00
2018-07-09T08:35:33.942Z,26.10
2018-07-09T08:36:39.869Z,26.10
2018-07-09T08:37:46.010Z,26.20
2018-07-09T08:38:51.462Z,26.20
2018-07-09T08:39:56.637Z,26.30
2018-07-09T08:41:02.420Z,26.30
2018-07-09T08:42:08.967Z,26.40
2018-07-09T08:43:14.756Z,26.40
2018-07-09T08:44:21.146Z,26.40
2018-07-09T08:45:26.688Z,26.50
2018-07-09T08:46:32.417Z,26.50
2018-07-09T08:47:38.104Z,26.60
2018-07-09T08:48:43.308Z,26.60
2018-07-09T08:49:48.553Z,26.70
2018-07-09T08:50:54.161Z,26.70
2018-07-09T08:51:59.869Z,26.80
2018-07-09T08:53:05.947Z,26.80
2018-07-09T08:54:12.029Z,26.90
2018-07-09T08:55:17.571Z,26.90
2018-07-09T08:56:23.184Z,27.00
2018-07-09T08:57:29.433Z,27.10
2018-07-09T08:58:35.089Z,27.10
2018-07-09T08:59:41.374Z,27.20
2018-07-09T09:00:52.827Z,27.20
2018-07-09T09:01:58.357Z,27.30
2018-07-09T09:03:04.552Z,27.30
2018-07-09T09:04:09.866Z,27.40
2018-07-09T09:05:16.554Z,27.50
2018-07-09T09:06:22.377Z,27.50
2018-07-09T09:07:28.633Z,27.60
2018-07-09T09:08:33.641Z,27.70
2018-07-09T09:09:39.144Z,27.70
2018-07-09T09:10:45.354Z,27.70
2018-07-09T09:11:50.625Z,27.80
2018-07-09T09:12:56.391Z,27.80
2018-07-09T09:14:01.910Z,27.90
2018-07-09T09:15:07.351Z,27.90
2018-07-09T09:16:12.869Z,28.00
2018-07-09T09:17:19.599Z,28.00
2018-07-09T09:18:25.961Z,28.10
2018-07-09T09:19:32.256Z,28.10
2018-07-09T09:20:38.728Z,28.20
2018-07-09T09:21:45.407Z,28.20
2018-07-09T09:22:51.340Z,28.20
2018-07-09T09:23:56.417Z,28.30
2018-07-09T09:25:02.198Z,28.30
2018-07-09T09:26:08.224Z,28.30
2018-07-09T09:27:13.897Z,28.40
2018-07-09T09:28:19.648Z,28.40
2018-07-09T09:29:26.458Z,28.50
2018-07-09T09:30:33.095Z,28.60
2018-07-09T09:31:38.595Z,28.60
2018-07-09T09:32:45.279Z,28.70
2018-07-09T09:33:51.315Z,28.80
2018-07-09T09:34:57.361Z,28.80
2018-07-09T09:36:03.752Z,28.90
2018-07-09T09:37:09.818Z,29.00
2018-07-09T09:38:16.174Z,29.10
2018-07-09T09:39:22.155Z,29.10
2018-07-09T09:40:27.708Z,29.20
2018-07-09T09:41:33.844Z,29.20
2018-07-09T09:42:39.877Z,29.30
2018-07-09T09:43:46.072Z,29.40
2018-07-09T09:44:50.911Z,29.40
2018-07-09T09:45:56.965Z,29.50
2018-07-09T09:47:03.245Z,29.50
2018-07-09T09:48:09.648Z,29.60
2018-07-09T09:49:16.329Z,29.60
2018-07-09T09:50:22.556Z,29.70
2018-07-09T09:51:28.411Z,29.70
2018-07-09T09:52:34.465Z,29.80
2018-07-09T09:53:40.673Z,29.80
2018-07-09T09:54:46.723Z,29.90
2018-07-09T09:55:53.123Z,29.90
2018-07-09T09:56:58.831Z,30.00
2018-07-09T09:58:05.239Z,30.00
2018-07-09T09:59:11.613Z,30.10
2018-07-09T10:00:17.591Z,30.10
2018-07-09T10:01:24.443Z,30.20
2018-07-09T10:02:30.143Z,30.20
2018-07-09T10:03:36.581Z,30.30
2018-07-09T10:04:41.905Z,30.30
2018-07-09T10:05:48.353Z,30.40
2018-07-09T10:06:53.894Z,30.50
2018-07-09T10:08:00.529Z,30.50
2018-07-09T10:09:07.780Z,30.50
2018-07-09T10:10:14.447Z,30.70
2018-07-09T10:11:20.702Z,30.70
2018-07-09T10:12:26.647Z,30.80
2018-07-09T10:13:32.524Z,30.90
2018-07-09T10:14:39.022Z,31.00
2018-07-09T10:15:46.149Z,31.00
2018-07-09T10:16:52.447Z,31.10
2018-07-09T10:17:58.401Z,31.20
2018-07-09T10:19:04.599Z,31.30
2018-07-09T10:20:11.356Z,31.40
2018-07-09T10:21:17.669Z,31.50
2018-07-09T10:22:24.404Z,31.60
2018-07-09T10:23:31.919Z,31.70
2018-07-09T10:24:37.276Z,31.80
2018-07-09T10:25:42.793Z,31.90
2018-07-09T10:26:48.873Z,32.00
2018-07-09T10:27:55.970Z,32.10
2018-07-09T10:29:02.795Z,32.20
2018-07-09T10:30:08.315Z,32.30
2018-07-09T10:31:15.652Z,32.50
2018-07-09T10:32:22.463Z,32.50
2018-07-09T10:33:28.421Z,32.70
2018-07-09T10:34:34.818Z,32.70
2018-07-09T10:35:41.516Z,32.90
2018-07-09T10:36:47.733Z,32.90
2018-07-09T10:37:55.297Z,33.00
2018-07-09T10:39:01.677Z,33.10
2018-07-09T10:40:07.945Z,33.20
2018-07-09T10:41:14.234Z,33.30
2018-07-09T10:42:20.306Z,33.30
2018-07-09T10:43:26.830Z,33.30
2018-07-09T10:44:33.694Z,33.40
2018-07-09T10:45:40.116Z,33.40
2018-07-09T10:46:46.651Z,33.40
2018-07-09T10:47:53.932Z,33.30
2018-07-09T10:48:59.231Z,33.20
2018-07-09T10:50:06.463Z,33.20
2018-07-09T10:51:12.577Z,33.10
2018-07-09T10:52:18.547Z,33.00
2018-07-09T10:53:24.693Z,32.90
2018-07-09T10:54:31.494Z,32.90
2018-07-09T10:55:37.435Z,32.80
2018-07-09T10:56:44.596Z,32.70
2018-07-09T10:57:50.809Z,32.70
2018-07-09T10:58:57.678Z,32.60
2018-07-09T11:00:03.987Z,32.50
2018-07-09T11:01:10.922Z,32.40
2018-07-09T11:02:18.059Z,32.30
2018-07-09T11:03:25.131Z,32.30
2018-07-09T11:04:31.835Z,32.20
2018-07-09T11:05:40.204Z,32.10
2018-07-09T11:06:46.429Z,32.10
2018-07-09T11:07:53.016Z,32.00
2018-07-09T11:08:59.477Z,32.00
2018-07-09T11:10:05.863Z,32.00
2018-07-09T11:11:13.117Z,32.00
2018-07-09T11:12:19.158Z,32.00
2018-07-09T11:13:25.952Z,32.00
2018-07-09T11:14:32.183Z,32.10
2018-07-09T11:15:39.047Z,32.10
2018-07-09T11:16:45.575Z,32.20
2018-07-09T11:17:51.522Z,32.30
2018-07-09T11:18:58.353Z,32.50
2018-07-09T11:20:04.320Z,32.60
2018-07-09T11:21:10.328Z,32.70
2018-07-09T11:22:16.887Z,32.90
2018-07-09T11:23:23.876Z,32.90
2018-07-09T11:24:29.936Z,33.10
2018-07-09T11:25:37.743Z,33.20
2018-07-09T11:26:44.407Z,33.30
2018-07-09T11:27:51.651Z,33.40
2018-07-09T11:28:57.223Z,33.50
2018-07-09T11:30:02.882Z,33.50
2018-07-09T11:31:10.084Z,33.50
2018-07-09T11:32:17.246Z,33.50
2018-07-09T11:33:23.967Z,33.50
2018-07-09T11:34:30.351Z,33.50
2018-07-09T11:35:36.387Z,33.50
2018-07-09T11:36:42.819Z,33.50
2018-07-09T11:37:48.743Z,33.50
2018-07-09T11:38:55.461Z,33.50
2018-07-09T11:40:02.698Z,33.50
2018-07-09T11:41:09.007Z,33.50
2018-07-09T11:42:16.992Z,33.50
2018-07-09T11:43:24.230Z,33.60
2018-07-09T11:44:30.631Z,33.60
2018-07-09T11:45:36.536Z,33.70
2018-07-09T11:46:42.297Z,33.80
2018-07-09T11:47:49.342Z,33.80
2018-07-09T11:48:55.363Z,33.90
2018-07-09T11:50:02.086Z,34.10
2018-07-09T11:51:08.406Z,34.20
2018-07-09T11:52:15.790Z,34.30
2018-07-09T11:53:22.645Z,34.50
2018-07-09T11:54:28.551Z,34.60
2018-07-09T11:55:34.522Z,34.90
2018-07-09T11:56:41.456Z,35.00
2018-07-09T11:57:47.268Z,35.30
2018-07-09T11:58:53.896Z,35.40
2018-07-09T12:00:00.657Z,35.70
2018-07-09T12:01:07.455Z,35.90
2018-07-09T12:02:13.620Z,36.10
2018-07-09T12:03:20.332Z,36.30
2018-07-09T12:04:27.026Z,36.50
2018-07-09T12:05:34.110Z,36.70
2018-07-09T12:06:40.273Z,36.90
2018-07-09T12:07:46.599Z,37.00
2018-07-09T12:08:52.981Z,37.20
2018-07-09T12:10:00.721Z,37.40
2018-07-09T12:11:07.501Z,37.50
2018-07-09T12:12:14.283Z,37.70
2018-07-09T12:13:20.067Z,37.80
2018-07-09T12:14:26.946Z,37.90
2018-07-09T12:15:33.067Z,37.90
2018-07-09T12:16:39.859Z,38.00
2018-07-09T12:17:46.798Z,38.10
2018-07-09T12:18:53.412Z,38.10
2018-07-09T12:19:59.993Z,38.10
2018-07-09T12:21:06.808Z,38.20
2018-07-09T12:22:13.858Z,38.20
2018-07-09T12:23:20.471Z,38.20
2018-07-09T12:24:26.741Z,38.30
2018-07-09T12:25:33.926Z,38.30
2018-07-09T12:26:41.893Z,38.30
2018-07-09T12:27:48.227Z,38.30
2018-07-09T12:28:55.710Z,38.30
2018-07-09T12:30:02.730Z,38.20
2018-07-09T12:31:10.693Z,38.20
2018-07-09T12:32:18.117Z,38.10
2018-07-09T12:33:25.653Z,38.20
2018-07-09T12:34:32.584Z,38.10
2018-07-09T12:35:39.405Z,38.10
2018-07-09T12:36:46.656Z,38.10
2018-07-09T12:37:53.301Z,38.10
2018-07-09T12:39:00.374Z,38.00
2018-07-09T12:40:07.368Z,38.00
2018-07-09T12:41:14.832Z,38.00
2018-07-09T12:42:21.210Z,38.00
2018-07-09T12:43:28.719Z,38.00
2018-07-09T12:44:35.615Z,38.10
2018-07-09T12:45:43.057Z,38.10
2018-07-09T12:46:50.380Z,38.10
2018-07-09T12:47:57.804Z,38.10
2018-07-09T12:49:05.320Z,38.20
2018-07-09T12:50:12.870Z,38.20
2018-07-09T12:51:19.306Z,38.20
2018-07-09T12:52:26.770Z,38.20
2018-07-09T12:53:34.466Z,38.20
2018-07-09T12:54:40.262Z,38.20
2018-07-09T12:55:47.471Z,38.20
2018-07-09T12:56:54.674Z,38.10
2018-07-09T12:58:01.373Z,38.10
2018-07-09T12:59:08.368Z,38.00
2018-07-09T13:00:15.553Z,37.90
2018-07-09T13:01:22.263Z,37.80
2018-07-09T13:02:30.352Z,37.70
2018-07-09T13:03:38.328Z,37.60
2018-07-09T13:04:45.391Z,37.50
2018-07-09T13:05:53.095Z,37.40
2018-07-09T13:07:00.779Z,37.30
2018-07-09T13:08:07.638Z,37.10
2018-07-09T13:09:14.500Z,37.00
2018-07-09T13:10:21.867Z,36.90
2018-07-09T13:11:28.571Z,36.80
2018-07-09T13:12:36.061Z,36.60
2018-07-09T13:13:43.058Z,36.50
2018-07-09T13:14:50.043Z,36.40
2018-07-09T13:15:56.818Z,36.30
2018-07-09T13:17:04.083Z,36.20
2018-07-09T13:18:10.901Z,36.10
2018-07-09T13:19:18.628Z,36.10
2018-07-09T13:20:26.352Z,36.10
2018-07-09T13:21:33.284Z,36.10
2018-07-09T13:22:40.024Z,36.10
2018-07-09T13:23:48.222Z,36.10
2018-07-09T13:24:55.882Z,36.20
2018-07-09T13:26:02.652Z,36.20
2018-07-09T13:27:09.301Z,36.30
2018-07-09T13:28:16.822Z,36.40
2018-07-09T13:29:23.142Z,36.40
2018-07-09T13:30:32.104Z,36.50
2018-07-09T13:31:40.050Z,36.50
2018-07-09T13:32:47.342Z,36.50
2018-07-09T13:33:54.258Z,36.60
2018-07-09T13:35:01.245Z,36.60
2018-07-09T13:36:06.793Z,36.60
2018-07-09T13:37:14.637Z,36.50
2018-07-09T13:38:21.805Z,36.50
2018-07-09T13:39:28.813Z,36.60
2018-07-09T13:40:36.460Z,36.50
2018-07-09T13:41:43.885Z,36.50
2018-07-09T13:42:51.701Z,36.60
2018-07-09T13:43:58.534Z,36.60
2018-07-09T13:45:05.421Z,36.60
2018-07-09T13:46:12.068Z,36.70
2018-07-09T13:47:20.917Z,36.70
2018-07-09T13:48:27.662Z,36.80
2018-07-09T13:49:35.842Z,36.80
2018-07-09T13:50:42.581Z,36.90
2018-07-09T13:51:49.685Z,36.90
2018-07-09T13:52:58.235Z,37.00
2018-07-09T13:54:05.347Z,37.10
2018-07-09T13:55:13.653Z,37.20
2018-07-09T13:56:21.632Z,37.30
2018-07-09T13:57:27.598Z,37.40
2018-07-09T13:58:35.509Z,37.50
2018-07-09T13:59:42.790Z,37.70
2018-07-09T14:00:48.839Z,37.80
2018-07-09T14:01:56.508Z,37.90
2018-07-09T14:03:02.878Z,38.10
2018-07-09T14:04:10.264Z,38.20
2018-07-09T14:05:17.104Z,38.30
2018-07-09T14:06:23.914Z,38.50
2018-07-09T14:07:30.377Z,38.50
2018-07-09T14:08:37.264Z,38.60
2018-07-09T14:09:44.697Z,38.60
2018-07-09T14:10:50.595Z,38.60
2018-07-09T14:11:57.948Z,38.60
2018-07-09T14:13:05.915Z,38.60
2018-07-09T14:14:12.953Z,38.50
2018-07-09T14:15:19.756Z,38.40
2018-07-09T14:16:27.363Z,38.30
2018-07-09T14:17:34.075Z,38.10
2018-07-09T14:18:42.391Z,38.00
2018-07-09T14:20:27.363Z,37.80
2018-07-09T14:21:33.895Z,37.70